createdAt,value
2024-05-09T00:00:39.226Z,14.48
2024-05-09T00:01:30.161Z,14.52
2024-05-09T00:02:25.755Z,14.52
2024-05-09T00:03:21.259Z,14.58
2024-05-09T00:04:16.754Z,14.46
2024-05-09T00:05:12.331Z,14.40
2024-05-09T00:06:08.041Z,14.37
2024-05-09T00:07:03.355Z,14.40
2024-05-09T00:07:58.880Z,14.48
2024-05-09T00:08:54.406Z,14.49
2024-05-09T00:09:49.950Z,14.49
2024-05-09T00:10:45.610Z,14.51
2024-05-09T00:11:41.129Z,14.56
2024-05-09T00:12:36.552Z,14.49
2024-05-09T00:13:32.086Z,14.58
2024-05-09T00:14:27.720Z,14.61
2024-05-09T00:15:23.155Z,14.51
2024-05-09T00:16:18.702Z,14.55
2024-05-09T00:17:14.301Z,14.40
2024-05-09T00:18:10.009Z,14.55
2024-05-09T00:19:05.491Z,14.52
2024-05-09T00:20:00.945Z,14.41
2024-05-09T00:20:56.507Z,14.40
2024-05-09T00:21:51.991Z,14.46
2024-05-09T00:22:47.578Z,14.44
2024-05-09T00:23:43.124Z,14.41
2024-05-09T00:24:38.597Z,14.37
2024-05-09T00:25:23.240Z,14.37
2024-05-09T00:26:18.818Z,14.36
2024-05-09T00:27:14.327Z,14.33
2024-05-09T00:28:09.891Z,14.44
2024-05-09T00:29:05.429Z,14.44
2024-05-09T00:30:00.969Z,14.40
2024-05-09T00:30:57.090Z,14.31
2024-05-09T00:31:52.832Z,14.37
2024-05-09T00:32:48.354Z,14.45
2024-05-09T00:33:43.875Z,14.38
2024-05-09T00:34:39.266Z,14.26
2024-05-09T00:35:34.862Z,14.33
2024-05-09T00:36:30.351Z,14.23
2024-05-09T00:37:25.912Z,14.16
2024-05-09T00:38:21.598Z,14.26
2024-05-09T00:39:16.994Z,14.11
2024-05-09T00:40:22.293Z,14.04
2024-05-09T00:41:08.103Z,14.12
2024-05-09T00:42:03.600Z,14.11
2024-05-09T00:42:59.158Z,14.19
2024-05-09T00:43:54.762Z,14.15
2024-05-09T00:44:50.270Z,14.15
2024-05-09T00:45:45.822Z,14.15
2024-05-09T00:46:41.368Z,14.16
2024-05-09T00:47:37.007Z,14.09
2024-05-09T00:48:32.613Z,14.00
2024-05-09T00:49:28.102Z,14.12
2024-05-09T00:50:19.019Z,13.97
2024-05-09T00:50:57.296Z,14.13
2024-05-09T00:51:52.624Z,14.09
2024-05-09T00:52:37.290Z,14.08
2024-05-09T00:53:33.026Z,14.12
2024-05-09T00:54:28.358Z,14.04
2024-05-09T00:55:23.875Z,14.03
2024-05-09T00:56:19.453Z,14.01
2024-05-09T00:57:14.970Z,14.04
2024-05-09T00:58:10.550Z,14.01
2024-05-09T00:59:06.115Z,13.97
2024-05-09T01:00:01.635Z,13.97
2024-05-09T01:00:57.317Z,13.93
2024-05-09T01:01:52.830Z,13.85
2024-05-09T01:02:48.345Z,13.93
2024-05-09T01:03:45.947Z,13.91
2024-05-09T01:04:39.407Z,13.85
2024-05-09T01:05:35.526Z,13.91
2024-05-09T01:06:30.497Z,13.85
2024-05-09T01:07:25.956Z,13.79
2024-05-09T01:08:21.717Z,13.75
2024-05-09T01:09:17.023Z,13.76
2024-05-09T01:10:17.426Z,13.82
2024-05-09T01:11:08.284Z,13.90
2024-05-09T01:12:03.979Z,13.79
2024-05-09T01:12:59.213Z,13.78
2024-05-09T01:13:54.786Z,13.68
2024-05-09T01:14:50.275Z,13.67
2024-05-09T01:15:45.826Z,13.65
2024-05-09T01:16:41.386Z,13.65
2024-05-09T01:17:37.111Z,13.65
2024-05-09T01:18:32.507Z,13.63
2024-05-09T01:19:28.138Z,13.60
2024-05-09T01:20:32.118Z,13.65
2024-05-09T01:21:19.182Z,13.58
2024-05-09T01:22:14.630Z,13.53
2024-05-09T01:23:10.794Z,13.43
2024-05-09T01:24:06.306Z,13.54
2024-05-09T01:25:01.830Z,13.51
2024-05-09T01:25:57.409Z,13.54
2024-05-09T01:26:52.890Z,13.51
2024-05-09T01:27:48.434Z,13.53
2024-05-09T01:28:43.986Z,13.49
2024-05-09T01:29:39.498Z,13.47
2024-05-09T01:30:31.719Z,13.49
2024-05-09T01:31:19.720Z,13.49
2024-05-09T01:32:15.362Z,13.42
2024-05-09T01:33:12.233Z,13.58
2024-05-09T01:34:06.360Z,13.40
2024-05-09T01:35:01.874Z,13.53
2024-05-09T01:35:57.406Z,13.39
2024-05-09T01:36:52.946Z,13.30
2024-05-09T01:37:48.559Z,13.42
2024-05-09T01:38:44.073Z,13.29
2024-05-09T01:39:39.586Z,13.26
2024-05-09T01:40:38.491Z,13.27
2024-05-09T01:41:30.725Z,13.30
2024-05-09T01:42:26.188Z,13.29
2024-05-09T01:43:21.716Z,13.40
2024-05-09T01:44:17.311Z,13.40
2024-05-09T01:45:12.799Z,13.39
2024-05-09T01:46:08.322Z,13.40
2024-05-09T01:47:03.944Z,13.45
2024-05-09T01:47:59.768Z,13.42
2024-05-09T01:48:55.012Z,13.42
2024-05-09T01:49:50.546Z,13.35
2024-05-09T01:50:46.068Z,13.42
2024-05-09T01:51:41.563Z,13.36
2024-05-09T01:52:37.099Z,13.36
2024-05-09T01:53:21.860Z,13.35
2024-05-09T01:54:17.293Z,13.32
2024-05-09T01:55:12.862Z,13.32
2024-05-09T01:56:08.443Z,13.29
2024-05-09T01:57:03.922Z,13.36
2024-05-09T01:57:59.453Z,13.36
2024-05-09T01:58:55.028Z,13.26
2024-05-09T01:59:50.533Z,13.23
2024-05-09T02:00:46.132Z,13.30
2024-05-09T02:01:56.090Z,13.36
2024-05-09T02:02:37.303Z,13.35
2024-05-09T02:03:22.023Z,13.27
2024-05-09T02:04:17.482Z,13.24
2024-05-09T02:05:13.023Z,13.21
2024-05-09T02:06:08.699Z,13.24
2024-05-09T02:07:04.012Z,13.17
2024-05-09T02:07:59.569Z,12.99
2024-05-09T02:08:55.083Z,13.09
2024-05-09T02:09:50.613Z,13.09
2024-05-09T02:10:46.337Z,12.96
2024-05-09T02:11:41.846Z,13.06
2024-05-09T02:12:37.261Z,13.02
2024-05-09T02:13:32.789Z,13.01
2024-05-09T02:14:28.447Z,12.95
2024-05-09T02:15:23.866Z,12.95
2024-05-09T02:16:19.396Z,12.81
2024-05-09T02:17:15.016Z,12.86
2024-05-09T02:18:11.101Z,12.83
2024-05-09T02:19:06.115Z,12.86
2024-05-09T02:20:01.643Z,12.95
2024-05-09T02:20:57.118Z,12.90
2024-05-09T02:21:52.640Z,12.88
2024-05-09T02:22:48.210Z,12.88
2024-05-09T02:23:43.769Z,12.93
2024-05-09T02:24:39.266Z,12.88
2024-05-09T02:25:35.070Z,12.90
2024-05-09T02:26:30.376Z,12.84
2024-05-09T02:27:25.872Z,12.81
2024-05-09T02:28:21.404Z,12.77
2024-05-09T02:29:17.006Z,12.84
2024-05-09T02:30:18.962Z,12.76
2024-05-09T02:31:09.025Z,12.73
2024-05-09T02:32:04.625Z,12.73
2024-05-09T02:33:00.347Z,12.73
2024-05-09T02:33:55.803Z,12.73
2024-05-09T02:34:51.242Z,12.77
2024-05-09T02:35:35.995Z,12.72
2024-05-09T02:36:31.422Z,12.76
2024-05-09T02:37:26.951Z,12.72
2024-05-09T02:38:22.535Z,12.59
2024-05-09T02:39:18.024Z,12.61
2024-05-09T02:40:15.044Z,12.72
2024-05-09T02:41:09.144Z,12.59
2024-05-09T02:42:04.860Z,12.62
2024-05-09T02:43:00.146Z,12.66
2024-05-09T02:43:55.780Z,12.58
2024-05-09T02:44:51.202Z,12.59
2024-05-09T02:45:46.769Z,12.55
2024-05-09T02:46:42.288Z,12.55
2024-05-09T02:47:38.027Z,12.51
2024-05-09T02:48:33.412Z,12.48
2024-05-09T02:49:29.186Z,12.51
2024-05-09T02:50:33.127Z,12.40
2024-05-09T02:51:20.008Z,12.43
2024-05-09T02:52:15.545Z,12.43
2024-05-09T02:53:00.267Z,12.33
2024-05-09T02:53:55.748Z,12.41
2024-05-09T02:54:51.325Z,12.30
2024-05-09T02:55:46.879Z,12.36
2024-05-09T02:56:42.363Z,12.38
2024-05-09T02:57:37.900Z,12.32
2024-05-09T02:58:33.411Z,12.40
2024-05-09T02:59:29.050Z,12.29
2024-05-09T03:00:29.959Z,12.28
2024-05-09T03:01:20.107Z,12.26
2024-05-09T03:02:15.664Z,12.38
2024-05-09T03:03:13.484Z,12.32
2024-05-09T03:04:06.910Z,12.30
2024-05-09T03:05:02.244Z,12.38
2024-05-09T03:05:57.762Z,12.44
2024-05-09T03:06:53.315Z,12.22
2024-05-09T03:07:48.848Z,12.29
2024-05-09T03:08:44.390Z,12.21
2024-05-09T03:09:39.885Z,12.17
2024-05-09T03:10:37.765Z,12.10
2024-05-09T03:11:31.082Z,11.96
2024-05-09T03:12:26.560Z,12.00
2024-05-09T03:13:22.094Z,12.04
2024-05-09T03:14:17.608Z,11.97
2024-05-09T03:15:13.090Z,12.08
2024-05-09T03:16:08.660Z,12.04
2024-05-09T03:17:04.236Z,12.04
2024-05-09T03:18:00.124Z,11.97
2024-05-09T03:18:55.379Z,11.96
2024-05-09T03:19:50.814Z,11.96
2024-05-09T03:20:46.360Z,11.99
2024-05-09T03:21:41.865Z,12.00
2024-05-09T03:22:37.394Z,11.87
2024-05-09T03:23:32.984Z,11.88
2024-05-09T03:24:28.472Z,11.80
2024-05-09T03:25:23.977Z,11.64
2024-05-09T03:26:19.570Z,11.61
2024-05-09T03:27:15.041Z,11.71
2024-05-09T03:28:10.570Z,11.73
2024-05-09T03:29:06.168Z,11.73
2024-05-09T03:30:02.013Z,11.74
2024-05-09T03:30:57.186Z,11.79
2024-05-09T03:31:52.902Z,11.64
2024-05-09T03:32:48.494Z,11.66
2024-05-09T03:33:44.013Z,11.56
2024-05-09T03:34:39.358Z,11.66
2024-05-09T03:35:34.925Z,11.77
2024-05-09T03:36:30.410Z,11.80
2024-05-09T03:37:25.952Z,11.70
2024-05-09T03:38:21.532Z,11.74
2024-05-09T03:39:17.012Z,11.76
2024-05-09T03:40:20.263Z,11.77
2024-05-09T03:41:08.172Z,11.74
2024-05-09T03:42:03.648Z,11.66
2024-05-09T03:42:59.158Z,11.69
2024-05-09T03:43:54.735Z,11.67
2024-05-09T03:44:50.228Z,11.58
2024-05-09T03:45:45.896Z,11.62
2024-05-09T03:46:41.345Z,11.62
2024-05-09T03:47:37.000Z,11.59
2024-05-09T03:48:32.514Z,11.61
2024-05-09T03:49:27.993Z,11.64
2024-05-09T03:50:30.103Z,11.71
2024-05-09T03:51:19.038Z,11.66
2024-05-09T03:52:14.557Z,11.62
2024-05-09T03:53:00.418Z,11.61
2024-05-09T03:53:55.744Z,11.66
2024-05-09T03:54:51.315Z,11.62
2024-05-09T03:55:46.848Z,11.59
2024-05-09T03:56:42.477Z,11.58
2024-05-09T03:57:37.873Z,11.61
2024-05-09T03:58:33.449Z,11.62
2024-05-09T03:59:29.013Z,11.61
2024-05-09T04:00:31.207Z,11.59
2024-05-09T04:01:20.078Z,11.64
2024-05-09T04:02:15.652Z,11.61
2024-05-09T04:03:12.758Z,11.51
2024-05-09T04:04:06.724Z,11.56
2024-05-09T04:05:02.346Z,11.41
2024-05-09T04:05:57.751Z,11.25
2024-05-09T04:06:53.311Z,11.22
2024-05-09T04:07:48.876Z,11.19
2024-05-09T04:08:44.414Z,11.15
2024-05-09T04:09:29.054Z,11.15
2024-05-09T04:10:31.254Z,11.20
2024-05-09T04:11:20.213Z,11.22
2024-05-09T04:12:15.762Z,11.16
2024-05-09T04:13:11.237Z,11.25
2024-05-09T04:14:06.809Z,11.18
2024-05-09T04:15:02.317Z,11.22
2024-05-09T04:15:57.823Z,11.13
2024-05-09T04:16:53.379Z,11.18
2024-05-09T04:17:49.619Z,11.12
2024-05-09T04:18:44.961Z,11.13
2024-05-09T04:19:40.416Z,11.19
2024-05-09T04:20:39.418Z,11.25
2024-05-09T04:21:31.539Z,11.22
2024-05-09T04:22:16.202Z,11.28
2024-05-09T04:23:12.107Z,11.40
2024-05-09T04:24:07.275Z,11.51
2024-05-09T04:25:02.799Z,11.43
2024-05-09T04:25:58.411Z,11.55
2024-05-09T04:26:53.896Z,11.69
2024-05-09T04:27:49.419Z,11.69
2024-05-09T04:28:44.984Z,11.56
2024-05-09T04:29:40.550Z,11.64
2024-05-09T04:30:39.361Z,11.62
2024-05-09T04:31:31.610Z,11.66
2024-05-09T04:32:27.357Z,11.64
2024-05-09T04:33:23.034Z,11.67
2024-05-09T04:34:18.268Z,11.74
2024-05-09T04:35:02.941Z,11.61
2024-05-09T04:35:58.349Z,11.70
2024-05-09T04:36:53.887Z,11.66
2024-05-09T04:37:49.476Z,11.71
2024-05-09T04:38:45.037Z,11.71
2024-05-09T04:39:40.549Z,11.71
2024-05-09T04:40:37.412Z,11.77
2024-05-09T04:41:31.687Z,11.69
2024-05-09T04:42:27.159Z,11.85
2024-05-09T04:43:22.729Z,11.84
2024-05-09T04:44:18.294Z,11.82
2024-05-09T04:45:13.797Z,11.84
2024-05-09T04:46:09.333Z,11.89
2024-05-09T04:47:04.921Z,11.84
2024-05-09T04:48:01.049Z,12.03
2024-05-09T04:48:56.025Z,11.88
2024-05-09T04:49:51.586Z,11.93
2024-05-09T04:50:47.126Z,12.08
2024-05-09T04:51:42.602Z,12.03
2024-05-09T04:52:38.128Z,12.04
2024-05-09T04:53:33.790Z,12.13
2024-05-09T04:54:35.855Z,11.99
2024-05-09T04:55:24.759Z,11.97
2024-05-09T04:56:20.338Z,11.89
2024-05-09T04:57:15.840Z,11.87
2024-05-09T04:58:11.376Z,11.88
2024-05-09T04:59:06.980Z,12.07
2024-05-09T05:00:03.023Z,12.05
2024-05-09T05:00:58.084Z,12.15
2024-05-09T05:01:53.777Z,12.21
2024-05-09T05:02:49.206Z,11.97
2024-05-09T05:03:44.937Z,11.82
2024-05-09T05:04:40.215Z,12.04
2024-05-09T05:05:35.818Z,12.08
2024-05-09T05:06:31.307Z,12.14
2024-05-09T05:07:26.851Z,12.21
2024-05-09T05:08:22.443Z,12.28
2024-05-09T05:09:17.902Z,12.33
2024-05-09T05:10:21.397Z,12.33
2024-05-09T05:11:09.044Z,12.32
2024-05-09T05:12:04.703Z,12.40
2024-05-09T05:12:49.211Z,12.35
2024-05-09T05:13:44.812Z,12.40
2024-05-09T05:14:41.393Z,12.30
2024-05-09T05:15:36.856Z,12.33
2024-05-09T05:16:21.588Z,12.32
2024-05-09T05:17:17.106Z,12.40
2024-05-09T05:18:12.730Z,12.44
2024-05-09T05:19:10.904Z,12.44
2024-05-09T05:20:04.830Z,12.46
2024-05-09T05:20:59.413Z,12.44
2024-05-09T05:21:54.784Z,12.35
2024-05-09T05:22:50.436Z,12.43
2024-05-09T05:23:45.934Z,12.51
2024-05-09T05:24:41.415Z,12.55
2024-05-09T05:25:36.950Z,12.50
2024-05-09T05:26:32.773Z,12.53
2024-05-09T05:27:28.081Z,12.51
2024-05-09T05:28:23.891Z,12.54
2024-05-09T05:29:20.808Z,12.58
2024-05-09T05:30:21.245Z,12.59
2024-05-09T05:31:10.387Z,12.59
2024-05-09T05:32:05.993Z,12.55
2024-05-09T05:33:01.620Z,12.73
2024-05-09T05:33:57.047Z,12.73
2024-05-09T05:34:52.630Z,12.72
2024-05-09T05:35:48.180Z,12.81
2024-05-09T05:36:43.617Z,12.77
2024-05-09T05:37:44.208Z,12.84
2024-05-09T05:38:39.757Z,12.76
2024-05-09T05:39:35.236Z,12.73
2024-05-09T05:40:36.354Z,12.77
2024-05-09T05:41:26.383Z,12.88
2024-05-09T05:42:21.857Z,12.95
2024-05-09T05:43:17.447Z,12.95
2024-05-09T05:44:12.990Z,12.96
2024-05-09T05:45:09.885Z,13.11
2024-05-09T05:46:04.015Z,13.08
2024-05-09T05:46:59.611Z,13.05
2024-05-09T05:47:44.374Z,12.95
2024-05-09T05:48:39.886Z,13.14
2024-05-09T05:49:35.417Z,13.02
2024-05-09T05:50:35.566Z,13.24
2024-05-09T05:51:26.434Z,13.20
2024-05-09T05:52:21.952Z,13.29
2024-05-09T05:53:17.526Z,13.26
2024-05-09T05:54:13.006Z,13.39
2024-05-09T05:55:08.546Z,13.42
2024-05-09T05:56:04.119Z,13.46
2024-05-09T05:56:59.612Z,13.32
2024-05-09T05:57:55.748Z,13.30
2024-05-09T05:58:51.365Z,13.40
2024-05-09T05:59:46.839Z,13.39
2024-05-09T06:00:43.018Z,13.40
2024-05-09T06:01:37.971Z,13.53
2024-05-09T06:02:33.514Z,13.51
2024-05-09T06:03:29.034Z,13.57
2024-05-09T06:04:24.568Z,13.47
2024-05-09T06:05:20.113Z,13.61
2024-05-09T06:06:15.631Z,13.63
2024-05-09T06:07:11.156Z,13.75
2024-05-09T06:08:06.750Z,13.78
2024-05-09T06:09:02.221Z,13.71
2024-05-09T06:09:57.799Z,13.73
2024-05-09T06:10:53.447Z,13.75
2024-05-09T06:11:48.979Z,13.79
2024-05-09T06:12:44.440Z,13.80
2024-05-09T06:13:40.003Z,13.76
2024-05-09T06:14:35.568Z,13.76
2024-05-09T06:15:31.121Z,13.85
2024-05-09T06:16:26.646Z,13.97
2024-05-09T06:17:22.382Z,13.98
2024-05-09T06:18:18.120Z,14.04
2024-05-09T06:19:13.337Z,14.00
2024-05-09T06:20:16.632Z,13.97
2024-05-09T06:21:04.347Z,13.98
2024-05-09T06:21:59.882Z,14.09
2024-05-09T06:22:55.420Z,14.04
2024-05-09T06:23:49.009Z,14.26
2024-05-09T06:24:42.508Z,14.18
2024-05-09T06:25:36.347Z,14.23
2024-05-09T06:26:29.638Z,14.12
2024-05-09T06:27:23.149Z,14.19
2024-05-09T06:28:16.744Z,14.38
2024-05-09T06:29:10.290Z,14.44
2024-05-09T06:30:03.978Z,14.45
2024-05-09T06:30:57.314Z,14.48
2024-05-09T06:31:50.917Z,14.48
2024-05-09T06:32:44.527Z,14.52
2024-05-09T06:33:38.073Z,14.56
2024-05-09T06:34:31.637Z,14.67
2024-05-09T06:35:25.074Z,14.71
2024-05-09T06:36:18.494Z,14.69
2024-05-09T06:37:13.028Z,14.70
2024-05-09T06:37:56.708Z,14.77
2024-05-09T06:38:50.292Z,14.82
2024-05-09T06:39:44.799Z,14.89
2024-05-09T06:40:35.877Z,14.86
2024-05-09T06:41:22.010Z,14.96
2024-05-09T06:42:15.603Z,15.04
2024-05-09T06:43:09.149Z,15.07
2024-05-09T06:44:02.718Z,15.12
2024-05-09T06:44:56.338Z,15.12
2024-05-09T06:45:49.836Z,15.10
2024-05-09T06:46:43.417Z,15.17
2024-05-09T06:47:27.155Z,15.20
2024-05-09T06:48:21.455Z,15.32
2024-05-09T06:49:14.719Z,15.33
2024-05-09T06:50:13.360Z,15.35
2024-05-09T06:51:01.391Z,15.45
2024-05-09T06:51:54.848Z,15.47
2024-05-09T06:52:48.503Z,15.59
2024-05-09T06:53:42.069Z,15.50
2024-05-09T06:54:35.528Z,15.50
2024-05-09T06:55:29.054Z,15.44
2024-05-09T06:56:22.627Z,15.59
2024-05-09T06:57:16.107Z,15.63
2024-05-09T06:58:09.897Z,15.62
2024-05-09T06:59:03.300Z,15.73
2024-05-09T06:59:56.731Z,15.81
2024-05-09T07:00:50.298Z,15.96
2024-05-09T07:01:43.771Z,15.95
2024-05-09T07:02:37.479Z,15.95
2024-05-09T07:03:31.078Z,16.00
2024-05-09T07:04:24.505Z,15.96
2024-05-09T07:05:18.184Z,16.16
2024-05-09T07:06:11.676Z,16.33
2024-05-09T07:07:05.148Z,16.33
2024-05-09T07:07:59.719Z,16.43
2024-05-09T07:08:53.342Z,16.51
2024-05-09T07:09:47.006Z,16.69
2024-05-09T07:10:40.542Z,16.79
2024-05-09T07:11:35.269Z,16.94
2024-05-09T07:12:28.980Z,16.99
2024-05-09T07:13:23.340Z,17.19
2024-05-09T07:14:17.903Z,17.09
2024-05-09T07:15:11.508Z,17.07
2024-05-09T07:16:06.045Z,16.95
2024-05-09T07:16:49.833Z,17.01
2024-05-09T07:17:44.475Z,16.94
2024-05-09T07:18:38.095Z,16.91
2024-05-09T07:19:31.577Z,16.92
2024-05-09T07:20:33.721Z,16.80
2024-05-09T07:21:18.685Z,16.76
2024-05-09T07:22:12.113Z,16.70
2024-05-09T07:23:05.793Z,16.73
2024-05-09T07:23:59.308Z,16.76
2024-05-09T07:24:52.960Z,16.72
2024-05-09T07:25:46.699Z,16.67
2024-05-09T07:26:40.157Z,16.64
2024-05-09T07:27:33.587Z,16.54
2024-05-09T07:28:27.137Z,16.52
2024-05-09T07:29:20.727Z,16.52
2024-05-09T07:30:20.084Z,16.54
2024-05-09T07:30:57.859Z,16.58
2024-05-09T07:31:51.441Z,16.62
2024-05-09T07:32:45.245Z,16.62
2024-05-09T07:33:38.534Z,16.59
2024-05-09T07:34:32.100Z,16.61
2024-05-09T07:35:25.647Z,16.59
2024-05-09T07:36:19.063Z,16.76
2024-05-09T07:37:12.798Z,16.65
2024-05-09T07:38:06.243Z,16.64
2024-05-09T07:38:59.701Z,16.59
2024-05-09T07:39:53.223Z,16.70
2024-05-09T07:40:46.902Z,16.80
2024-05-09T07:41:40.338Z,16.73
2024-05-09T07:42:33.797Z,16.72
2024-05-09T07:43:27.336Z,16.73
2024-05-09T07:44:20.902Z,16.77
2024-05-09T07:45:29.932Z,16.82
2024-05-09T07:47:13.751Z,16.84
2024-05-09T07:47:52.506Z,16.95
2024-05-09T07:49:12.734Z,16.98
2024-05-09T07:53:29.743Z,17.20
2024-05-09T07:53:36.965Z,17.16
2024-05-09T07:53:57.103Z,17.12
2024-05-09T07:54:49.815Z,17.13
2024-05-09T07:55:45.433Z,17.16
2024-05-09T07:56:41.163Z,17.17
2024-05-09T07:57:36.350Z,17.16
2024-05-09T07:58:31.854Z,17.17
2024-05-09T07:59:27.401Z,17.24
2024-05-09T08:00:29.741Z,17.16
2024-05-09T08:01:18.701Z,17.16
2024-05-09T08:02:14.206Z,17.16
2024-05-09T08:03:09.730Z,17.35
2024-05-09T08:04:05.216Z,17.32
2024-05-09T08:04:53.002Z,17.41
2024-05-09T08:05:48.403Z,17.38
2024-05-09T08:06:44.003Z,17.50
2024-05-09T08:07:39.521Z,17.54
2024-05-09T08:08:35.097Z,17.50
2024-05-09T08:09:30.663Z,17.52
2024-05-09T08:10:28.959Z,17.62
2024-05-09T08:11:21.790Z,17.56
2024-05-09T08:12:17.287Z,17.54
2024-05-09T08:13:12.858Z,17.50
2024-05-09T08:14:08.348Z,17.53
2024-05-09T08:15:03.876Z,17.59
2024-05-09T08:15:59.526Z,17.54
2024-05-09T08:16:55.022Z,17.65
2024-05-09T08:17:50.642Z,17.68
2024-05-09T08:18:46.143Z,17.75
2024-05-09T08:19:41.695Z,17.69
2024-05-09T08:20:37.182Z,17.72
2024-05-09T08:21:32.756Z,17.81
2024-05-09T08:22:28.295Z,17.93
2024-05-09T08:23:24.066Z,17.93
2024-05-09T08:24:19.426Z,17.94
2024-05-09T08:25:04.158Z,17.93
2024-05-09T08:25:48.830Z,18.05
2024-05-09T08:26:44.376Z,18.18
2024-05-09T08:27:39.956Z,18.26
2024-05-09T08:28:35.483Z,18.26
2024-05-09T08:29:31.028Z,18.41
2024-05-09T08:30:33.176Z,18.23
2024-05-09T08:31:22.191Z,18.34
2024-05-09T08:32:17.663Z,18.21
2024-05-09T08:33:13.293Z,18.30
2024-05-09T08:34:08.911Z,18.28
2024-05-09T08:35:04.359Z,18.21
2024-05-09T08:35:59.855Z,18.36
2024-05-09T08:36:57.532Z,18.42
2024-05-09T08:37:50.950Z,18.54
2024-05-09T08:38:46.481Z,18.56
2024-05-09T08:39:42.752Z,18.67
2024-05-09T08:40:38.544Z,18.91
2024-05-09T08:41:33.707Z,19.04
2024-05-09T08:42:29.318Z,19.09
2024-05-09T08:43:24.833Z,19.26
2024-05-09T08:44:20.339Z,19.45
2024-05-09T08:45:15.876Z,19.50
2024-05-09T08:46:11.592Z,19.67
2024-05-09T08:47:07.024Z,19.71
2024-05-09T08:48:02.637Z,19.79
2024-05-09T08:48:58.220Z,20.08
2024-05-09T08:49:53.688Z,20.27
2024-05-09T08:50:49.202Z,20.50
2024-05-09T08:51:44.722Z,20.65
2024-05-09T08:52:29.367Z,20.77
2024-05-09T08:53:24.915Z,20.86
2024-05-09T08:54:20.449Z,20.95
2024-05-09T08:55:05.473Z,20.92
2024-05-09T08:56:00.718Z,21.16
2024-05-09T08:56:56.260Z,21.34
2024-05-09T08:57:51.830Z,21.56
2024-05-09T08:58:47.331Z,21.51
2024-05-09T08:59:42.875Z,21.50
2024-05-09T09:00:38.503Z,21.50
2024-05-09T09:01:34.200Z,21.58
2024-05-09T09:02:18.914Z,21.71
2024-05-09T09:03:14.247Z,21.73
2024-05-09T09:04:09.837Z,21.73
2024-05-09T09:04:54.509Z,21.78
2024-05-09T09:05:50.037Z,21.91
2024-05-09T09:06:45.567Z,22.01
2024-05-09T09:07:41.030Z,22.21
2024-05-09T09:08:36.595Z,22.43
2024-05-09T09:09:32.185Z,22.36
2024-05-09T09:10:32.057Z,22.51
2024-05-09T09:11:12.435Z,22.56
2024-05-09T09:12:10.170Z,22.66
2024-05-09T09:13:03.489Z,22.68
2024-05-09T09:13:58.996Z,22.76
2024-05-09T09:14:54.549Z,22.86
2024-05-09T09:15:50.372Z,22.89
2024-05-09T09:16:45.624Z,22.83
2024-05-09T09:17:41.259Z,23.01
2024-05-09T09:18:36.949Z,23.22
2024-05-09T09:19:32.357Z,23.31
2024-05-09T09:20:34.033Z,23.41
2024-05-09T09:21:23.985Z,23.48
2024-05-09T09:22:19.849Z,23.48
2024-05-09T09:23:15.097Z,23.61
2024-05-09T09:24:10.605Z,23.66
2024-05-09T09:25:06.238Z,23.39
2024-05-09T09:26:01.831Z,23.28
2024-05-09T09:26:57.253Z,23.56
2024-05-09T09:27:52.868Z,23.71
2024-05-09T09:28:48.345Z,23.88
2024-05-09T09:29:43.892Z,24.06
2024-05-09T09:30:39.602Z,24.03
2024-05-09T09:31:35.087Z,24.19
2024-05-09T09:32:30.661Z,24.26
2024-05-09T09:33:26.177Z,24.31
2024-05-09T09:34:21.798Z,24.53
2024-05-09T09:35:06.398Z,24.56
2024-05-09T09:35:51.037Z,24.29
2024-05-09T09:36:46.581Z,24.31
2024-05-09T09:37:31.263Z,24.38
2024-05-09T09:38:26.837Z,24.52
2024-05-09T09:39:22.387Z,24.70
2024-05-09T09:40:18.481Z,24.70
2024-05-09T09:41:13.562Z,24.79
2024-05-09T09:42:09.013Z,24.85
2024-05-09T09:43:04.604Z,24.97
2024-05-09T09:44:00.152Z,25.06
2024-05-09T09:45:03.903Z,25.16
2024-05-09T09:45:51.450Z,25.12
2024-05-09T09:46:46.775Z,25.18
2024-05-09T09:47:42.588Z,25.26
2024-05-09T09:48:38.029Z,25.34
2024-05-09T09:49:33.535Z,25.30
2024-05-09T09:50:34.290Z,25.31
2024-05-09T09:51:24.559Z,25.26
2024-05-09T09:52:20.166Z,25.30
2024-05-09T09:53:15.697Z,25.41
2024-05-09T09:54:11.182Z,25.68
2024-05-09T09:55:06.755Z,25.67
2024-05-09T09:56:02.301Z,25.77
2024-05-09T09:56:57.850Z,25.77
2024-05-09T09:57:53.504Z,25.89
2024-05-09T09:58:48.963Z,25.89
2024-05-09T09:59:44.543Z,26.10
2024-05-09T10:00:40.261Z,26.20
2024-05-09T10:01:35.979Z,26.26
2024-05-09T10:02:31.451Z,26.38
2024-05-09T10:03:26.747Z,26.45
2024-05-09T10:04:22.499Z,26.52
2024-05-09T10:05:17.878Z,26.63
2024-05-09T10:06:13.333Z,26.60
2024-05-09T10:07:08.979Z,26.78
2024-05-09T10:08:04.414Z,26.76
2024-05-09T10:09:00.013Z,26.76
2024-05-09T10:09:55.665Z,26.71
2024-05-09T10:10:51.245Z,26.86
2024-05-09T10:11:51.822Z,26.86
2024-05-09T10:12:42.233Z,26.63
2024-05-09T10:13:37.781Z,26.04
2024-05-09T10:14:33.334Z,26.38
2024-05-09T10:15:28.977Z,26.61
2024-05-09T10:16:24.711Z,26.83
2024-05-09T10:17:20.016Z,26.93
2024-05-09T10:18:15.996Z,26.76
2024-05-09T10:19:11.272Z,26.49
2024-05-09T10:20:14.463Z,26.65
2024-05-09T10:21:02.193Z,26.75
2024-05-09T10:21:57.899Z,26.80
2024-05-09T10:22:53.401Z,26.98
2024-05-09T10:23:48.943Z,27.08
2024-05-09T10:24:44.515Z,27.13
2024-05-09T10:25:40.655Z,27.16
2024-05-09T10:26:36.266Z,27.27
2024-05-09T10:27:31.890Z,27.37
2024-05-09T10:28:27.680Z,27.26
2024-05-09T10:29:22.985Z,27.15
2024-05-09T10:30:25.868Z,27.07
2024-05-09T10:31:14.278Z,27.20
2024-05-09T10:32:09.679Z,27.34
2024-05-09T10:33:05.282Z,27.32
2024-05-09T10:34:01.077Z,27.25
2024-05-09T10:34:56.360Z,27.26
2024-05-09T10:35:51.846Z,27.17
2024-05-09T10:36:47.445Z,27.34
2024-05-09T10:37:42.933Z,27.41
2024-05-09T10:38:38.475Z,27.25
2024-05-09T10:39:34.059Z,26.90
2024-05-09T10:40:31.712Z,26.26
2024-05-09T10:41:25.103Z,27.07
2024-05-09T10:42:09.756Z,28.49
2024-05-09T10:43:06.553Z,29.49
2024-05-09T10:44:00.901Z,29.81
2024-05-09T10:44:56.453Z,31.20
2024-05-09T10:45:52.031Z,31.57
2024-05-09T10:46:36.674Z,31.01
2024-05-09T10:47:32.326Z,30.85
2024-05-09T10:48:28.150Z,31.29
2024-05-09T10:49:23.403Z,32.60
2024-05-09T10:50:25.537Z,33.49
2024-05-09T10:51:14.472Z,34.15
2024-05-09T10:52:10.042Z,34.94
2024-05-09T10:53:05.591Z,35.14
2024-05-09T10:54:01.135Z,35.68
2024-05-09T10:54:56.761Z,35.60
2024-05-09T10:55:52.281Z,36.09
2024-05-09T10:56:47.826Z,36.71
2024-05-09T10:57:43.498Z,37.04
2024-05-09T10:58:38.999Z,36.93
2024-05-09T10:59:23.702Z,36.98
2024-05-09T11:00:27.462Z,36.52
2024-05-09T11:01:14.874Z,36.35
2024-05-09T11:02:10.500Z,35.53
2024-05-09T11:03:06.028Z,36.07
2024-05-09T11:04:01.696Z,36.29
2024-05-09T11:04:57.125Z,36.82
2024-05-09T11:05:52.671Z,37.49
2024-05-09T11:06:48.145Z,36.96
2024-05-09T11:07:43.666Z,37.54
2024-05-09T11:08:39.270Z,38.16
2024-05-09T11:09:34.830Z,38.41
2024-05-09T11:10:27.123Z,38.69
2024-05-09T11:11:15.023Z,38.52
2024-05-09T11:12:10.652Z,38.67
2024-05-09T11:13:06.119Z,38.11
2024-05-09T11:14:01.661Z,38.45
2024-05-09T11:14:57.225Z,38.81
2024-05-09T11:15:52.858Z,39.11
2024-05-09T11:16:48.334Z,39.24
2024-05-09T11:17:44.019Z,39.31
2024-05-09T11:18:39.787Z,39.28
2024-05-09T11:19:35.089Z,39.30
2024-05-09T11:20:34.789Z,39.46
2024-05-09T11:21:26.209Z,39.09
2024-05-09T11:22:21.803Z,38.82
2024-05-09T11:23:17.335Z,39.01
2024-05-09T11:24:12.914Z,38.79
2024-05-09T11:25:08.493Z,38.35
2024-05-09T11:26:04.155Z,38.39
2024-05-09T11:26:59.596Z,38.30
2024-05-09T11:27:55.221Z,38.22
2024-05-09T11:28:51.097Z,38.16
2024-05-09T11:29:35.435Z,37.73
2024-05-09T11:30:32.366Z,37.13
2024-05-09T11:31:26.795Z,36.64
2024-05-09T11:32:22.211Z,36.52
2024-05-09T11:33:17.725Z,35.77
2024-05-09T11:34:13.309Z,35.17
2024-05-09T11:35:08.800Z,34.91
2024-05-09T11:36:04.347Z,34.62
2024-05-09T11:37:00.008Z,34.38
2024-05-09T11:37:55.525Z,34.03
2024-05-09T11:38:51.098Z,33.81
2024-05-09T11:39:46.666Z,33.62
2024-05-09T11:40:42.258Z,33.09
2024-05-09T11:41:37.780Z,32.63
2024-05-09T11:42:33.372Z,32.41
2024-05-09T11:43:29.023Z,32.39
2024-05-09T11:44:24.483Z,32.36
2024-05-09T11:45:20.035Z,31.81
2024-05-09T11:46:15.725Z,31.59
2024-05-09T11:47:11.207Z,31.59
2024-05-09T11:48:06.929Z,31.44
2024-05-09T11:49:02.438Z,31.41